sensor_id;sensor_type;location;lat;lon;timestamp;temperature;humidity
3919;DHT22;1974;48.670;8.994;2023-09-08T00:00:56;18.50;99.90
3919;DHT22;1974;48.670;8.994;2023-09-08T00:03:23;18.50;99.90
3919;DHT22;1974;48.670;8.994;2023-09-08T00:05:50;18.50;99.90
3919;DHT22;1974;48.670;8.994;2023-09-08T00:08:16;18.50;99.90
3919;DHT22;1974;48.670;8.994;2023-09-08T00:10:43;18.40;99.90
3919;DHT22;1974;48.670;8.994;2023-09-08T00:13:11;18.50;99.90
3919;DHT22;1974;48.670;8.994;2023-09-08T00:15:38;18.40;99.90
3919;DHT22;1974;48.670;8.994;2023-09-08T00:18:05;18.30;99.90
3919;DHT22;1974;48.670;8.994;2023-09-08T00:20:32;18.30;99.90
3919;DHT22;1974;48.670;8.994;2023-09-08T00:22:58;18.20;99.90
3919;DHT22;1974;48.670;8.994;2023-09-08T00:25:25;18.20;99.90
3919;DHT22;1974;48.670;8.994;2023-09-08T00:27:52;18.20;99.90
3919;DHT22;1974;48.670;8.994;2023-09-08T00:30:20;18.20;99.90
3919;DHT22;1974;48.670;8.994;2023-09-08T00:32:47;18.20;99.90
3919;DHT22;1974;48.670;8.994;2023-09-08T00:35:13;18.10;99.90
3919;DHT22;1974;48.670;8.994;2023-09-08T00:37:40;18.10;99.90
3919;DHT22;1974;48.670;8.994;2023-09-08T00:40:08;18.10;99.90
3919;DHT22;1974;48.670;8.994;2023-09-08T00:42:35;18.10;99.90
3919;DHT22;1974;48.670;8.994;2023-09-08T00:45:01;18.00;99.90
3919;DHT22;1974;48.670;8.994;2023-09-08T00:47:30;18.00;99.90
3919;DHT22;1974;48.670;8.994;2023-09-08T00:49:57;17.90;99.90
3919;DHT22;1974;48.670;8.994;2023-09-08T00:52:24;17.90;99.90
3919;DHT22;1974;48.670;8.994;2023-09-08T00:54:56;17.90;99.90
3919;DHT22;1974;48.670;8.994;2023-09-08T00:57:23;17.90;99.90
3919;DHT22;1974;48.670;8.994;2023-09-08T00:59:50;17.80;99.90
3919;DHT22;1974;48.670;8.994;2023-09-08T01:02:17;17.80;99.90
3919;DHT22;1974;48.670;8.994;2023-09-08T01:04:45;17.80;99.90
3919;DHT22;1974;48.670;8.994;2023-09-08T01:07:13;17.90;99.90
3919;DHT22;1974;48.670;8.994;2023-09-08T01:09:41;17.80;99.90
3919;DHT22;1974;48.670;8.994;2023-09-08T01:12:08;17.80;99.90
3919;DHT22;1974;48.670;8.994;2023-09-08T01:14:35;17.70;99.90
3919;DHT22;1974;48.670;8.994;2023-09-08T01:17:02;17.70;99.90
3919;DHT22;1974;48.670;8.994;2023-09-08T01:19:29;17.70;99.90
3919;DHT22;1974;48.670;8.994;2023-09-08T01:22:14;17.60;99.90
3919;DHT22;1974;48.670;8.994;2023-09-08T01:25:17;17.60;99.90
3919;DHT22;1974;48.670;8.994;2023-09-08T01:27:46;17.60;99.90
3919;DHT22;1974;48.670;8.994;2023-09-08T01:30:14;18.00;99.90
3919;DHT22;1974;48.670;8.994;2023-09-08T01:32:42;17.60;99.90
3919;DHT22;1974;48.670;8.994;2023-09-08T01:35:10;17.50;99.90
3919;DHT22;1974;48.670;8.994;2023-09-08T01:37:39;17.50;99.90
3919;DHT22;1974;48.670;8.994;2023-09-08T01:40:07;17.50;99.90
3919;DHT22;1974;48.670;8.994;2023-09-08T01:42:36;17.40;99.90
3919;DHT22;1974;48.670;8.994;2023-09-08T01:45:04;17.40;99.90
3919;DHT22;1974;48.670;8.994;2023-09-08T01:47:31;17.40;99.90
3919;DHT22;1974;48.670;8.994;2023-09-08T01:49:57;17.40;99.90
3919;DHT22;1974;48.670;8.994;2023-09-08T01:52:24;17.40;99.90
3919;DHT22;1974;48.670;8.994;2023-09-08T01:54:51;17.40;99.90
3919;DHT22;1974;48.670;8.994;2023-09-08T01:57:18;17.40;99.90
3919;DHT22;1974;48.670;8.994;2023-09-08T01:59:46;17.40;99.90
3919;DHT22;1974;48.670;8.994;2023-09-08T02:02:13;17.40;99.90
3919;DHT22;1974;48.670;8.994;2023-09-08T02:04:40;17.40;99.90
3919;DHT22;1974;48.670;8.994;2023-09-08T02:07:07;17.50;99.90
3919;DHT22;1974;48.670;8.994;2023-09-08T02:09:35;17.40;99.90
3919;DHT22;1974;48.670;8.994;2023-09-08T02:12:02;17.40;99.90
3919;DHT22;1974;48.670;8.994;2023-09-08T02:14:29;17.40;99.90
3919;DHT22;1974;48.670;8.994;2023-09-08T02:16:57;17.40;99.90
3919;DHT22;1974;48.670;8.994;2023-09-08T02:19:24;17.40;99.90
3919;DHT22;1974;48.670;8.994;2023-09-08T02:21:50;17.40;99.90
3919;DHT22;1974;48.670;8.994;2023-09-08T02:24:17;17.40;99.90
3919;DHT22;1974;48.670;8.994;2023-09-08T02:26:44;17.30;99.90
3919;DHT22;1974;48.670;8.994;2023-09-08T02:29:11;17.30;99.90
3919;DHT22;1974;48.670;8.994;2023-09-08T02:31:37;17.30;99.90
3919;DHT22;1974;48.670;8.994;2023-09-08T02:34:06;17.30;99.90
3919;DHT22;1974;48.670;8.994;2023-09-08T02:36:32;17.20;99.90
3919;DHT22;1974;48.670;8.994;2023-09-08T02:38:59;17.20;99.90
3919;DHT22;1974;48.670;8.994;2023-09-08T02:41:26;17.20;99.90
3919;DHT22;1974;48.670;8.994;2023-09-08T02:43:53;17.10;99.90
3919;DHT22;1974;48.670;8.994;2023-09-08T02:46:19;17.10;99.90
3919;DHT22;1974;48.670;8.994;2023-09-08T02:48:46;17.00;99.90
3919;DHT22;1974;48.670;8.994;2023-09-08T02:51:14;17.00;99.90
3919;DHT22;1974;48.670;8.994;2023-09-08T02:53:41;16.90;99.90
3919;DHT22;1974;48.670;8.994;2023-09-08T02:56:08;16.90;99.90
3919;DHT22;1974;48.670;8.994;2023-09-08T02:58:35;16.90;99.90
3919;DHT22;1974;48.670;8.994;2023-09-08T03:01:12;16.90;99.90
3919;DHT22;1974;48.670;8.994;2023-09-08T03:03:40;16.90;99.90
3919;DHT22;1974;48.670;8.994;2023-09-08T03:06:07;16.90;99.90
3919;DHT22;1974;48.670;8.994;2023-09-08T03:08:35;16.90;99.90
3919;DHT22;1974;48.670;8.994;2023-09-08T03:11:03;16.80;99.90
3919;DHT22;1974;48.670;8.994;2023-09-08T03:13:30;16.80;99.90
3919;DHT22;1974;48.670;8.994;2023-09-08T03:16:02;16.70;99.90
3919;DHT22;1974;48.670;8.994;2023-09-08T03:18:28;16.70;99.90
3919;DHT22;1974;48.670;8.994;2023-09-08T03:20:55;16.60;99.90
3919;DHT22;1974;48.670;8.994;2023-09-08T03:23:22;16.70;99.90
3919;DHT22;1974;48.670;8.994;2023-09-08T03:25:50;16.60;99.90
3919;DHT22;1974;48.670;8.994;2023-09-08T03:28:17;16.60;99.90
3919;DHT22;1974;48.670;8.994;2023-09-08T03:30:44;16.60;99.90
3919;DHT22;1974;48.670;8.994;2023-09-08T03:33:11;16.60;99.90
3919;DHT22;1974;48.670;8.994;2023-09-08T03:35:37;16.70;99.90
3919;DHT22;1974;48.670;8.994;2023-09-08T03:38:04;16.70;99.90
3919;DHT22;1974;48.670;8.994;2023-09-08T03:40:31;16.70;99.90
3919;DHT22;1974;48.670;8.994;2023-09-08T03:42:59;16.60;99.90
3919;DHT22;1974;48.670;8.994;2023-09-08T03:45:26;16.70;99.90
3919;DHT22;1974;48.670;8.994;2023-09-08T03:47:52;16.70;99.90
3919;DHT22;1974;48.670;8.994;2023-09-08T03:50:19;16.60;99.90
3919;DHT22;1974;48.670;8.994;2023-09-08T03:52:46;16.70;99.90
3919;DHT22;1974;48.670;8.994;2023-09-08T03:55:13;16.60;99.90
3919;DHT22;1974;48.670;8.994;2023-09-08T03:57:40;16.60;99.90
3919;DHT22;1974;48.670;8.994;2023-09-08T04:00:09;16.60;99.90
3919;DHT22;1974;48.670;8.994;2023-09-08T04:02:37;16.60;99.90
3919;DHT22;1974;48.670;8.994;2023-09-08T04:05:04;16.50;99.90
3919;DHT22;1974;48.670;8.994;2023-09-08T04:07:31;16.60;99.90
3919;DHT22;1974;48.670;8.994;2023-09-08T04:09:58;16.50;99.90
3919;DHT22;1974;48.670;8.994;2023-09-08T04:12:25;16.40;99.90
3919;DHT22;1974;48.670;8.994;2023-09-08T04:14:51;16.40;99.90
3919;DHT22;1974;48.670;8.994;2023-09-08T04:17:20;16.40;99.90
3919;DHT22;1974;48.670;8.994;2023-09-08T04:19:47;16.30;99.90
3919;DHT22;1974;48.670;8.994;2023-09-08T04:22:13;16.30;99.90
3919;DHT22;1974;48.670;8.994;2023-09-08T04:24:40;16.30;99.90
3919;DHT22;1974;48.670;8.994;2023-09-08T04:27:07;16.30;99.90
3919;DHT22;1974;48.670;8.994;2023-09-08T04:29:35;16.30;99.90
3919;DHT22;1974;48.670;8.994;2023-09-08T04:32:02;16.30;99.90
3919;DHT22;1974;48.670;8.994;2023-09-08T04:34:37;16.30;99.90
3919;DHT22;1974;48.670;8.994;2023-09-08T04:37:03;16.30;99.90
3919;DHT22;1974;48.670;8.994;2023-09-08T04:39:31;16.30;99.90
3919;DHT22;1974;48.670;8.994;2023-09-08T04:41:57;16.20;99.90
3919;DHT22;1974;48.670;8.994;2023-09-08T04:44:24;16.20;99.90
3919;DHT22;1974;48.670;8.994;2023-09-08T04:46:51;16.20;99.90
3919;DHT22;1974;48.670;8.994;2023-09-08T04:49:18;16.20;99.90
3919;DHT22;1974;48.670;8.994;2023-09-08T04:51:46;16.20;99.90
3919;DHT22;1974;48.670;8.994;2023-09-08T04:54:13;16.30;99.90
3919;DHT22;1974;48.670;8.994;2023-09-08T04:56:40;16.20;99.90
3919;DHT22;1974;48.670;8.994;2023-09-08T04:59:06;16.20;99.90
3919;DHT22;1974;48.670;8.994;2023-09-08T05:01:33;16.20;99.90
3919;DHT22;1974;48.670;8.994;2023-09-08T05:04:03;16.20;99.90
3919;DHT22;1974;48.670;8.994;2023-09-08T05:06:29;16.10;99.90
3919;DHT22;1974;48.670;8.994;2023-09-08T05:08:58;16.10;99.90
3919;DHT22;1974;48.670;8.994;2023-09-08T05:11:25;16.10;99.90
3919;DHT22;1974;48.670;8.994;2023-09-08T05:13:51;16.10;99.90
3919;DHT22;1974;48.670;8.994;2023-09-08T05:16:18;16.20;99.90
3919;DHT22;1974;48.670;8.994;2023-09-08T05:18:51;16.20;99.90
3919;DHT22;1974;48.670;8.994;2023-09-08T05:21:18;16.20;99.90
3919;DHT22;1974;48.670;8.994;2023-09-08T05:23:45;16.20;99.90
3919;DHT22;1974;48.670;8.994;2023-09-08T05:26:13;16.20;99.90
3919;DHT22;1974;48.670;8.994;2023-09-08T05:28:40;16.20;99.90
3919;DHT22;1974;48.670;8.994;2023-09-08T05:31:06;16.30;99.90
3919;DHT22;1974;48.670;8.994;2023-09-08T05:33:33;16.30;99.90
3919;DHT22;1974;48.670;8.994;2023-09-08T05:36:00;16.30;99.90
3919;DHT22;1974;48.670;8.994;2023-09-08T05:38:27;16.40;99.90
3919;DHT22;1974;48.670;8.994;2023-09-08T05:40:54;16.30;99.90
3919;DHT22;1974;48.670;8.994;2023-09-08T05:43:24;16.40;99.90
3919;DHT22;1974;48.670;8.994;2023-09-08T05:45:51;16.40;99.90
3919;DHT22;1974;48.670;8.994;2023-09-08T05:48:18;16.40;99.90
3919;DHT22;1974;48.670;8.994;2023-09-08T05:50:44;16.50;99.90
3919;DHT22;1974;48.670;8.994;2023-09-08T05:53:11;16.50;99.90
3919;DHT22;1974;48.670;8.994;2023-09-08T05:55:38;16.60;99.90
3919;DHT22;1974;48.670;8.994;2023-09-08T05:58:05;16.60;99.90
3919;DHT22;1974;48.670;8.994;2023-09-08T06:00:34;16.60;99.90
3919;DHT22;1974;48.670;8.994;2023-09-08T06:03:00;16.60;99.90
3919;DHT22;1974;48.670;8.994;2023-09-08T06:05:27;16.70;99.90
3919;DHT22;1974;48.670;8.994;2023-09-08T06:07:54;16.70;99.90
3919;DHT22;1974;48.670;8.994;2023-09-08T06:10:21;16.80;99.90
3919;DHT22;1974;48.670;8.994;2023-09-08T06:12:48;16.80;99.90
3919;DHT22;1974;48.670;8.994;2023-09-08T06:15:16;16.90;99.90
3919;DHT22;1974;48.670;8.994;2023-09-08T06:17:44;17.00;99.90
3919;DHT22;1974;48.670;8.994;2023-09-08T06:20:12;17.00;99.90
3919;DHT22;1974;48.670;8.994;2023-09-08T06:22:39;17.10;99.90
3919;DHT22;1974;48.670;8.994;2023-09-08T06:25:06;17.30;99.90
3919;DHT22;1974;48.670;8.994;2023-09-08T06:27:33;17.50;99.90
3919;DHT22;1974;48.670;8.994;2023-09-08T06:30:00;17.70;99.90
3919;DHT22;1974;48.670;8.994;2023-09-08T06:32:26;17.90;99.90
3919;DHT22;1974;48.670;8.994;2023-09-08T06:34:54;18.10;99.90
3919;DHT22;1974;48.670;8.994;2023-09-08T06:37:21;18.30;99.90
3919;DHT22;1974;48.670;8.994;2023-09-08T06:39:48;18.50;99.90
3919;DHT22;1974;48.670;8.994;2023-09-08T06:42:15;18.50;99.90
3919;DHT22;1974;48.670;8.994;2023-09-08T06:44:41;18.60;99.90
3919;DHT22;1974;48.670;8.994;2023-09-08T06:47:08;18.70;99.90
3919;DHT22;1974;48.670;8.994;2023-09-08T06:49:35;18.80;99.90
3919;DHT22;1974;48.670;8.994;2023-09-08T06:52:04;18.90;99.90
3919;DHT22;1974;48.670;8.994;2023-09-08T06:54:31;19.00;99.90
3919;DHT22;1974;48.670;8.994;2023-09-08T06:56:58;19.00;99.90
3919;DHT22;1974;48.670;8.994;2023-09-08T06:59:25;19.10;99.90
3919;DHT22;1974;48.670;8.994;2023-09-08T07:01:51;19.20;99.90
3919;DHT22;1974;48.670;8.994;2023-09-08T07:04:18;19.20;99.90
3919;DHT22;1974;48.670;8.994;2023-09-08T07:06:45;19.40;99.90
3919;DHT22;1974;48.670;8.994;2023-09-08T07:09:13;19.40;99.90
3919;DHT22;1974;48.670;8.994;2023-09-08T07:11:40;19.60;99.90
3919;DHT22;1974;48.670;8.994;2023-09-08T07:14:07;19.70;99.90
3919;DHT22;1974;48.670;8.994;2023-09-08T07:16:34;19.70;99.90
3919;DHT22;1974;48.670;8.994;2023-09-08T07:19:02;19.90;99.90
3919;DHT22;1974;48.670;8.994;2023-09-08T07:21:29;20.00;99.90
3919;DHT22;1974;48.670;8.994;2023-09-08T07:23:56;20.10;99.90
3919;DHT22;1974;48.670;8.994;2023-09-08T07:26:25;20.20;99.90
3919;DHT22;1974;48.670;8.994;2023-09-08T07:28:52;20.30;99.90
3919;DHT22;1974;48.670;8.994;2023-09-08T07:31:19;20.40;99.90
3919;DHT22;1974;48.670;8.994;2023-09-08T07:33:46;20.40;99.90
3919;DHT22;1974;48.670;8.994;2023-09-08T07:36:13;20.50;99.90
3919;DHT22;1974;48.670;8.994;2023-09-08T07:38:40;20.50;99.90
3919;DHT22;1974;48.670;8.994;2023-09-08T07:41:07;20.60;99.90
3919;DHT22;1974;48.670;8.994;2023-09-08T07:43:35;20.70;99.90
3919;DHT22;1974;48.670;8.994;2023-09-08T07:46:05;20.80;99.90
3919;DHT22;1974;48.670;8.994;2023-09-08T07:48:32;21.00;99.90
3919;DHT22;1974;48.670;8.994;2023-09-08T07:50:59;21.10;99.90
3919;DHT22;1974;48.670;8.994;2023-09-08T07:53:26;21.10;99.90
3919;DHT22;1974;48.670;8.994;2023-09-08T07:55:53;21.20;99.90
3919;DHT22;1974;48.670;8.994;2023-09-08T07:58:21;21.30;99.90
3919;DHT22;1974;48.670;8.994;2023-09-08T08:00:49;21.40;99.90
3919;DHT22;1974;48.670;8.994;2023-09-08T08:03:16;21.60;99.90
3919;DHT22;1974;48.670;8.994;2023-09-08T08:05:43;21.80;99.90
3919;DHT22;1974;48.670;8.994;2023-09-08T08:08:09;21.90;99.90
3919;DHT22;1974;48.670;8.994;2023-09-08T08:10:36;22.20;99.90
3919;DHT22;1974;48.670;8.994;2023-09-08T08:13:03;22.30;99.90
3919;DHT22;1974;48.670;8.994;2023-09-08T08:15:37;22.40;99.90
3919;DHT22;1974;48.670;8.994;2023-09-08T08:18:06;22.50;99.90
3919;DHT22;1974;48.670;8.994;2023-09-08T08:20:35;22.60;99.90
3919;DHT22;1974;48.670;8.994;2023-09-08T08:23:02;22.60;99.90
3919;DHT22;1974;48.670;8.994;2023-09-08T08:25:29;22.70;99.90
3919;DHT22;1974;48.670;8.994;2023-09-08T08:27:56;22.90;99.90
3919;DHT22;1974;48.670;8.994;2023-09-08T08:30:24;23.00;99.90
3919;DHT22;1974;48.670;8.994;2023-09-08T08:32:50;23.10;99.90
3919;DHT22;1974;48.670;8.994;2023-09-08T08:35:20;23.20;99.90
3919;DHT22;1974;48.670;8.994;2023-09-08T08:37:46;23.30;99.90
3919;DHT22;1974;48.670;8.994;2023-09-08T08:40:13;23.40;99.90
3919;DHT22;1974;48.670;8.994;2023-09-08T08:42:41;23.60;99.90
3919;DHT22;1974;48.670;8.994;2023-09-08T08:45:08;23.70;99.90
3919;DHT22;1974;48.670;8.994;2023-09-08T08:47:36;23.60;99.90
3919;DHT22;1974;48.670;8.994;2023-09-08T08:50:03;23.70;99.90
3919;DHT22;1974;48.670;8.994;2023-09-08T08:52:31;23.80;99.90
3919;DHT22;1974;48.670;8.994;2023-09-08T08:54:59;23.90;99.90
3919;DHT22;1974;48.670;8.994;2023-09-08T08:57:27;24.00;99.90
3919;DHT22;1974;48.670;8.994;2023-09-08T08:59:54;24.20;99.90
3919;DHT22;1974;48.670;8.994;2023-09-08T09:02:21;24.30;99.90
3919;DHT22;1974;48.670;8.994;2023-09-08T09:04:49;24.50;99.90
3919;DHT22;1974;48.670;8.994;2023-09-08T09:07:18;24.70;99.90
3919;DHT22;1974;48.670;8.994;2023-09-08T09:09:46;24.70;99.90
3919;DHT22;1974;48.670;8.994;2023-09-08T09:12:13;24.90;99.90
3919;DHT22;1974;48.670;8.994;2023-09-08T09:14:45;24.90;99.90
3919;DHT22;1974;48.670;8.994;2023-09-08T09:17:13;25.10;99.90
3919;DHT22;1974;48.670;8.994;2023-09-08T09:19:40;25.10;99.90
3919;DHT22;1974;48.670;8.994;2023-09-08T09:22:07;25.30;99.90
3919;DHT22;1974;48.670;8.994;2023-09-08T09:24:35;25.50;99.90
3919;DHT22;1974;48.670;8.994;2023-09-08T09:27:08;25.80;99.90
3919;DHT22;1974;48.670;8.994;2023-09-08T09:29:44;26.20;99.90
3919;DHT22;1974;48.670;8.994;2023-09-08T09:32:12;26.30;99.90
3919;DHT22;1974;48.670;8.994;2023-09-08T09:34:47;26.30;99.90
3919;DHT22;1974;48.670;8.994;2023-09-08T09:37:15;26.30;99.90
3919;DHT22;1974;48.670;8.994;2023-09-08T09:39:42;26.40;99.90
3919;DHT22;1974;48.670;8.994;2023-09-08T09:42:10;26.40;99.90
3919;DHT22;1974;48.670;8.994;2023-09-08T09:44:37;26.40;99.90
3919;DHT22;1974;48.670;8.994;2023-09-08T09:47:04;26.50;99.90
3919;DHT22;1974;48.670;8.994;2023-09-08T09:49:32;26.80;99.90
3919;DHT22;1974;48.670;8.994;2023-09-08T09:52:07;26.90;99.90
3919;DHT22;1974;48.670;8.994;2023-09-08T09:54:34;26.80;99.90
3919;DHT22;1974;48.670;8.994;2023-09-08T09:57:01;26.80;99.90
3919;DHT22;1974;48.670;8.994;2023-09-08T09:59:30;26.80;99.90
3919;DHT22;1974;48.670;8.994;2023-09-08T10:01:57;26.90;99.90
3919;DHT22;1974;48.670;8.994;2023-09-08T10:04:24;26.90;99.90
3919;DHT22;1974;48.670;8.994;2023-09-08T10:06:52;27.00;99.90
3919;DHT22;1974;48.670;8.994;2023-09-08T10:09:20;27.20;99.90
3919;DHT22;1974;48.670;8.994;2023-09-08T10:11:48;27.20;99.90
3919;DHT22;1974;48.670;8.994;2023-09-08T10:14:18;27.20;99.90
3919;DHT22;1974;48.670;8.994;2023-09-08T10:16:48;27.20;99.90
3919;DHT22;1974;48.670;8.994;2023-09-08T10:19:18;27.20;99.90
3919;DHT22;1974;48.670;8.994;2023-09-08T10:21:46;27.10;99.90
3919;DHT22;1974;48.670;8.994;2023-09-08T10:24:15;27.20;99.90
3919;DHT22;1974;48.670;8.994;2023-09-08T10:26:44;27.30;99.90
3919;DHT22;1974;48.670;8.994;2023-09-08T10:29:13;27.50;99.90
3919;DHT22;1974;48.670;8.994;2023-09-08T10:31:41;27.40;99.90
3919;DHT22;1974;48.670;8.994;2023-09-08T10:34:09;27.50;99.90
3919;DHT22;1974;48.670;8.994;2023-09-08T10:36:36;27.50;99.90
3919;DHT22;1974;48.670;8.994;2023-09-08T10:39:32;27.70;99.90
3919;DHT22;1974;48.670;8.994;2023-09-08T10:42:23;27.60;99.90
3919;DHT22;1974;48.670;8.994;2023-09-08T10:44:59;27.60;99.90
3919;DHT22;1974;48.670;8.994;2023-09-08T10:47:32;27.70;99.90
3919;DHT22;1974;48.670;8.994;2023-09-08T10:50:04;27.70;99.90
3919;DHT22;1974;48.670;8.994;2023-09-08T10:52:31;27.70;99.90
3919;DHT22;1974;48.670;8.994;2023-09-08T10:55:00;27.90;99.90
3919;DHT22;1974;48.670;8.994;2023-09-08T10:57:28;28.00;99.90
3919;DHT22;1974;48.670;8.994;2023-09-08T11:00:00;27.90;99.90
3919;DHT22;1974;48.670;8.994;2023-09-08T11:02:35;28.10;99.90
3919;DHT22;1974;48.670;8.994;2023-09-08T11:05:06;28.20;99.90
3919;DHT22;1974;48.670;8.994;2023-09-08T11:07:35;28.20;99.90
3919;DHT22;1974;48.670;8.994;2023-09-08T11:10:02;28.20;99.90
3919;DHT22;1974;48.670;8.994;2023-09-08T11:12:30;28.20;99.90
3919;DHT22;1974;48.670;8.994;2023-09-08T11:14:57;28.00;99.90
3919;DHT22;1974;48.670;8.994;2023-09-08T11:17:26;28.00;99.90
3919;DHT22;1974;48.670;8.994;2023-09-08T11:19:54;27.90;99.90
3919;DHT22;1974;48.670;8.994;2023-09-08T11:22:23;28.00;99.90
3919;DHT22;1974;48.670;8.994;2023-09-08T11:24:51;28.10;99.90
3919;DHT22;1974;48.670;8.994;2023-09-08T11:27:18;28.10;99.90
3919;DHT22;1974;48.670;8.994;2023-09-08T11:29:45;28.00;99.90
3919;DHT22;1974;48.670;8.994;2023-09-08T11:32:12;28.00;99.90
3919;DHT22;1974;48.670;8.994;2023-09-08T11:34:39;28.00;99.90
3919;DHT22;1974;48.670;8.994;2023-09-08T11:37:08;28.00;99.90
3919;DHT22;1974;48.670;8.994;2023-09-08T11:39:37;28.00;99.90
3919;DHT22;1974;48.670;8.994;2023-09-08T11:42:05;28.00;99.90
3919;DHT22;1974;48.670;8.994;2023-09-08T11:44:32;28.00;99.90
3919;DHT22;1974;48.670;8.994;2023-09-08T11:47:00;28.00;99.90
3919;DHT22;1974;48.670;8.994;2023-09-08T11:49:33;28.00;99.90
3919;DHT22;1974;48.670;8.994;2023-09-08T11:52:00;27.90;99.90
3919;DHT22;1974;48.670;8.994;2023-09-08T11:54:27;28.00;99.90
3919;DHT22;1974;48.670;8.994;2023-09-08T11:56:56;28.00;99.90
3919;DHT22;1974;48.670;8.994;2023-09-08T11:59:23;28.00;99.90
3919;DHT22;1974;48.670;8.994;2023-09-08T12:01:50;28.00;99.90
3919;DHT22;1974;48.670;8.994;2023-09-08T12:04:18;27.80;99.90
3919;DHT22;1974;48.670;8.994;2023-09-08T12:06:45;27.70;99.90
3919;DHT22;1974;48.670;8.994;2023-09-08T12:09:12;27.70;99.90
3919;DHT22;1974;48.670;8.994;2023-09-08T12:11:40;27.80;99.90
3919;DHT22;1974;48.670;8.994;2023-09-08T12:14:10;27.80;99.90
3919;DHT22;1974;48.670;8.994;2023-09-08T12:16:38;27.70;99.90
3919;DHT22;1974;48.670;8.994;2023-09-08T12:19:05;27.60;99.90
3919;DHT22;1974;48.670;8.994;2023-09-08T12:21:34;27.70;99.90
3919;DHT22;1974;48.670;8.994;2023-09-08T12:24:02;27.70;99.90
3919;DHT22;1974;48.670;8.994;2023-09-08T12:26:28;27.60;99.90
3919;DHT22;1974;48.670;8.994;2023-09-08T12:28:55;27.50;99.90
3919;DHT22;1974;48.670;8.994;2023-09-08T12:31:24;27.40;99.90
3919;DHT22;1974;48.670;8.994;2023-09-08T12:33:51;27.30;99.90
3919;DHT22;1974;48.670;8.994;2023-09-08T12:36:19;27.20;99.90
3919;DHT22;1974;48.670;8.994;2023-09-08T12:38:50;27.10;99.90
3919;DHT22;1974;48.670;8.994;2023-09-08T12:41:17;27.10;99.90
3919;DHT22;1974;48.670;8.994;2023-09-08T12:43:44;27.10;99.90
3919;DHT22;1974;48.670;8.994;2023-09-08T12:46:12;27.00;99.90
3919;DHT22;1974;48.670;8.994;2023-09-08T12:48:40;26.90;99.90
3919;DHT22;1974;48.670;8.994;2023-09-08T12:51:06;26.90;99.90
3919;DHT22;1974;48.670;8.994;2023-09-08T12:53:34;26.80;99.90
3919;DHT22;1974;48.670;8.994;2023-09-08T12:56:01;26.80;99.90
3919;DHT22;1974;48.670;8.994;2023-09-08T12:58:28;26.70;99.90
3919;DHT22;1974;48.670;8.994;2023-09-08T13:00:55;26.60;99.90
3919;DHT22;1974;48.670;8.994;2023-09-08T13:03:22;26.80;99.90
3919;DHT22;1974;48.670;8.994;2023-09-08T13:05:50;26.90;99.90
3919;DHT22;1974;48.670;8.994;2023-09-08T13:08:17;26.80;99.90
3919;DHT22;1974;48.670;8.994;2023-09-08T13:10:44;26.90;99.90
3919;DHT22;1974;48.670;8.994;2023-09-08T13:13:09;27.00;99.90
3919;DHT22;1974;48.670;8.994;2023-09-08T13:15:36;27.00;99.90
3919;DHT22;1974;48.670;8.994;2023-09-08T13:18:03;27.00;99.90
3919;DHT22;1974;48.670;8.994;2023-09-08T13:20:30;27.00;99.90
3919;DHT22;1974;48.670;8.994;2023-09-08T13:22:58;26.90;99.90
3919;DHT22;1974;48.670;8.994;2023-09-08T13:25:25;27.00;99.90
3919;DHT22;1974;48.670;8.994;2023-09-08T13:27:52;27.00;99.90
3919;DHT22;1974;48.670;8.994;2023-09-08T13:30:19;27.00;99.90
3919;DHT22;1974;48.670;8.994;2023-09-08T13:32:47;27.00;99.90
3919;DHT22;1974;48.670;8.994;2023-09-08T13:35:14;27.10;99.90
3919;DHT22;1974;48.670;8.994;2023-09-08T13:37:41;27.20;99.90
3919;DHT22;1974;48.670;8.994;2023-09-08T13:40:09;27.20;99.90
3919;DHT22;1974;48.670;8.994;2023-09-08T13:42:36;27.10;99.90
3919;DHT22;1974;48.670;8.994;2023-09-08T13:45:04;27.10;99.90
3919;DHT22;1974;48.670;8.994;2023-09-08T13:47:31;27.10;99.90
3919;DHT22;1974;48.670;8.994;2023-09-08T13:49:58;27.10;99.90
3919;DHT22;1974;48.670;8.994;2023-09-08T13:52:25;26.90;99.90
3919;DHT22;1974;48.670;8.994;2023-09-08T13:54:51;26.80;99.90
3919;DHT22;1974;48.670;8.994;2023-09-08T13:57:19;26.70;99.90
3919;DHT22;1974;48.670;8.994;2023-09-08T13:59:46;26.60;99.90
3919;DHT22;1974;48.670;8.994;2023-09-08T14:02:13;26.50;99.90
3919;DHT22;1974;48.670;8.994;2023-09-08T14:04:40;26.50;99.90
3919;DHT22;1974;48.670;8.994;2023-09-08T14:07:08;26.60;99.90
3919;DHT22;1974;48.670;8.994;2023-09-08T14:09:35;26.50;99.90
3919;DHT22;1974;48.670;8.994;2023-09-08T14:12:01;26.50;99.90
3919;DHT22;1974;48.670;8.994;2023-09-08T14:14:30;26.60;99.90
3919;DHT22;1974;48.670;8.994;2023-09-08T14:16:56;26.70;99.90
3919;DHT22;1974;48.670;8.994;2023-09-08T14:19:23;26.80;99.90
3919;DHT22;1974;48.670;8.994;2023-09-08T14:21:50;27.00;99.90
3919;DHT22;1974;48.670;8.994;2023-09-08T14:24:17;27.00;99.90
3919;DHT22;1974;48.670;8.994;2023-09-08T14:26:43;27.00;99.90
3919;DHT22;1974;48.670;8.994;2023-09-08T14:29:10;26.90;99.90
3919;DHT22;1974;48.670;8.994;2023-09-08T14:31:38;26.80;99.90
3919;DHT22;1974;48.670;8.994;2023-09-08T14:34:05;26.80;99.90
3919;DHT22;1974;48.670;8.994;2023-09-08T14:36:33;27.00;99.90
3919;DHT22;1974;48.670;8.994;2023-09-08T14:39:00;27.00;99.90
3919;DHT22;1974;48.670;8.994;2023-09-08T14:41:26;27.00;99.90
3919;DHT22;1974;48.670;8.994;2023-09-08T14:43:54;27.10;99.90
3919;DHT22;1974;48.670;8.994;2023-09-08T14:46:21;27.10;99.90
3919;DHT22;1974;48.670;8.994;2023-09-08T14:48:49;27.00;99.90
3919;DHT22;1974;48.670;8.994;2023-09-08T14:51:15;26.90;99.90
3919;DHT22;1974;48.670;8.994;2023-09-08T14:53:42;26.80;99.90
3919;DHT22;1974;48.670;8.994;2023-09-08T14:56:09;26.70;99.90
3919;DHT22;1974;48.670;8.994;2023-09-08T14:58:36;26.60;99.90
3919;DHT22;1974;48.670;8.994;2023-09-08T15:01:03;26.50;99.90
3919;DHT22;1974;48.670;8.994;2023-09-08T15:03:32;26.40;99.90
3919;DHT22;1974;48.670;8.994;2023-09-08T15:06:01;26.30;99.90
3919;DHT22;1974;48.670;8.994;2023-09-08T15:08:28;26.40;99.90
3919;DHT22;1974;48.670;8.994;2023-09-08T15:10:55;26.40;99.90
3919;DHT22;1974;48.670;8.994;2023-09-08T15:13:21;26.30;99.90
3919;DHT22;1974;48.670;8.994;2023-09-08T15:15:48;26.40;99.90
3919;DHT22;1974;48.670;8.994;2023-09-08T15:18:15;26.50;99.90
3919;DHT22;1974;48.670;8.994;2023-09-08T15:20:50;26.70;99.90
3919;DHT22;1974;48.670;8.994;2023-09-08T15:23:19;26.80;99.90
3919;DHT22;1974;48.670;8.994;2023-09-08T15:25:56;26.70;99.90
3919;DHT22;1974;48.670;8.994;2023-09-08T15:28:23;26.60;99.90
3919;DHT22;1974;48.670;8.994;2023-09-08T15:30:52;26.50;99.90
3919;DHT22;1974;48.670;8.994;2023-09-08T15:33:19;26.40;99.90
3919;DHT22;1974;48.670;8.994;2023-09-08T15:35:48;26.30;99.90
3919;DHT22;1974;48.670;8.994;2023-09-08T15:38:15;26.40;99.90
3919;DHT22;1974;48.670;8.994;2023-09-08T15:41:16;26.40;99.90
3919;DHT22;1974;48.670;8.994;2023-09-08T15:43:48;26.50;99.90
3919;DHT22;1974;48.670;8.994;2023-09-08T15:46:15;26.40;99.90
3919;DHT22;1974;48.670;8.994;2023-09-08T15:48:42;26.40;99.90
3919;DHT22;1974;48.670;8.994;2023-09-08T15:51:09;26.40;99.90
3919;DHT22;1974;48.670;8.994;2023-09-08T15:53:36;26.30;99.90
3919;DHT22;1974;48.670;8.994;2023-09-08T15:56:05;26.40;99.90
3919;DHT22;1974;48.670;8.994;2023-09-08T15:58:32;26.30;99.90
3919;DHT22;1974;48.670;8.994;2023-09-08T16:00:59;26.30;99.90
3919;DHT22;1974;48.670;8.994;2023-09-08T16:03:26;26.40;99.90
3919;DHT22;1974;48.670;8.994;2023-09-08T16:05:53;26.40;99.90